createdAt,value
2019-03-19T00:01:14.227Z,4.57
2019-03-19T00:03:42.667Z,3.20
2019-03-19T00:06:11.158Z,3.53
2019-03-19T00:08:39.592Z,3.77
2019-03-19T00:11:08.046Z,3.27
2019-03-19T00:13:36.498Z,3.80
2019-03-19T00:16:04.943Z,3.93
2019-03-19T00:18:33.368Z,3.67
2019-03-19T00:21:01.819Z,3.80
2019-03-19T00:23:30.277Z,4.30
2019-03-19T00:25:58.742Z,4.00
2019-03-19T00:28:27.305Z,3.80
2019-03-19T00:30:55.725Z,3.40
2019-03-19T00:33:24.223Z,3.83
2019-03-19T00:35:52.660Z,3.73
2019-03-19T00:38:21.093Z,3.80
2019-03-19T00:40:49.541Z,4.27
2019-03-19T00:43:17.990Z,3.57
2019-03-19T00:45:46.421Z,3.53
2019-03-19T00:48:14.872Z,3.60
2019-03-19T00:50:43.427Z,3.10
2019-03-19T00:53:11.863Z,4.10
2019-03-19T00:55:41.154Z,3.43
2019-03-19T00:58:09.927Z,3.40
2019-03-19T01:00:38.384Z,3.63
2019-03-19T01:03:06.845Z,4.63
2019-03-19T01:05:35.287Z,4.30
2019-03-19T01:08:03.808Z,3.50
2019-03-19T01:10:32.333Z,4.00
2019-03-19T01:13:00.784Z,4.53
2019-03-19T01:15:29.216Z,3.30
2019-03-19T01:17:57.671Z,3.70
2019-03-19T01:20:26.157Z,4.03
2019-03-19T01:22:54.608Z,4.07
2019-03-19T01:25:23.159Z,3.60
2019-03-19T01:27:51.635Z,4.13
2019-03-19T01:30:20.072Z,3.93
2019-03-19T01:32:48.511Z,3.13
2019-03-19T01:35:16.978Z,4.13
2019-03-19T01:37:45.399Z,3.57
2019-03-19T01:40:14.281Z,4.40
2019-03-19T01:42:42.812Z,3.73
2019-03-19T01:45:12.382Z,3.90
2019-03-19T01:47:40.869Z,4.60
2019-03-19T01:50:15.983Z,3.50
2019-03-19T01:52:44.493Z,4.47
2019-03-19T01:55:16.285Z,3.57
2019-03-19T01:57:44.732Z,3.43
2019-03-19T02:00:18.758Z,3.43
2019-03-19T02:02:47.231Z,3.30
2019-03-19T02:05:15.748Z,4.33
2019-03-19T02:07:44.225Z,2.97
2019-03-19T02:10:16.534Z,3.43
2019-03-19T02:12:44.964Z,3.47
2019-03-19T02:15:18.171Z,4.07
2019-03-19T02:17:46.765Z,4.47
2019-03-19T02:20:16.468Z,3.93
2019-03-19T02:22:45.013Z,3.70
2019-03-19T02:25:13.444Z,3.10
2019-03-19T02:27:41.940Z,3.57
2019-03-19T02:30:14.895Z,3.43
2019-03-19T02:32:43.468Z,3.97
2019-03-19T02:35:12.164Z,4.87
2019-03-19T02:37:40.611Z,5.30
2019-03-19T02:40:11.791Z,4.00
2019-03-19T02:42:40.255Z,3.60
2019-03-19T02:45:15.904Z,4.57
2019-03-19T02:47:44.391Z,4.67
2019-03-19T02:50:17.289Z,3.47
2019-03-19T02:52:45.701Z,5.37
2019-03-19T02:55:14.590Z,3.73
2019-03-19T02:57:43.119Z,4.67
2019-03-19T03:00:20.587Z,4.00
2019-03-19T03:02:49.058Z,4.73
2019-03-19T03:05:23.296Z,4.70
2019-03-19T03:07:51.743Z,4.33
2019-03-19T03:10:20.211Z,4.17
2019-03-19T03:12:48.652Z,3.80
2019-03-19T03:15:17.224Z,4.10
2019-03-19T03:17:45.687Z,4.30
2019-03-19T03:20:17.638Z,3.73
2019-03-19T03:22:46.196Z,4.03
2019-03-19T03:25:17.036Z,3.77
2019-03-19T03:27:45.507Z,3.93
2019-03-19T03:30:19.094Z,4.57
2019-03-19T03:32:47.518Z,3.77
2019-03-19T03:35:16.137Z,3.90
2019-03-19T03:37:44.561Z,3.70
2019-03-19T03:40:18.244Z,4.47
2019-03-19T03:42:46.702Z,3.93
2019-03-19T03:45:16.686Z,4.00
2019-03-19T03:47:45.274Z,3.97
2019-03-19T03:50:15.246Z,4.10
2019-03-19T03:52:43.778Z,3.77
2019-03-19T03:55:15.636Z,4.20
2019-03-19T03:57:44.062Z,3.87
2019-03-19T04:00:16.782Z,3.63
2019-03-19T04:02:45.232Z,4.33
2019-03-19T04:05:13.972Z,3.90
2019-03-19T04:07:42.444Z,4.67
2019-03-19T04:10:16.104Z,5.00
2019-03-19T04:12:47.508Z,4.77
2019-03-19T04:15:19.249Z,3.67
2019-03-19T04:17:47.724Z,4.57
2019-03-19T04:20:19.261Z,4.40
2019-03-19T04:22:47.760Z,4.53
2019-03-19T04:25:16.303Z,4.30
2019-03-19T04:27:44.840Z,6.57
2019-03-19T04:30:17.947Z,5.27
2019-03-19T04:32:46.476Z,3.90
2019-03-19T04:35:14.926Z,4.53
2019-03-19T04:37:43.515Z,4.70
2019-03-19T04:40:15.760Z,4.43
2019-03-19T04:42:44.656Z,4.50
2019-03-19T04:45:16.817Z,5.33
2019-03-19T04:47:45.404Z,4.83
2019-03-19T04:50:15.926Z,4.70
2019-03-19T04:52:44.527Z,4.40
2019-03-19T04:55:14.608Z,4.30
2019-03-19T04:57:43.059Z,5.47
2019-03-19T05:00:16.839Z,4.43
2019-03-19T05:02:45.304Z,4.00
2019-03-19T05:05:14.581Z,5.27
2019-03-19T05:07:43.086Z,4.03
2019-03-19T05:10:18.478Z,4.37
2019-03-19T05:12:46.999Z,4.67
2019-03-19T05:15:15.605Z,4.70
2019-03-19T05:17:44.050Z,4.13
2019-03-19T05:20:17.379Z,5.50
2019-03-19T05:22:45.918Z,4.73
2019-03-19T05:25:14.333Z,4.93
2019-03-19T05:27:42.841Z,4.20
2019-03-19T05:30:14.046Z,4.30
2019-03-19T05:32:43.163Z,4.83
2019-03-19T05:35:11.731Z,4.37
2019-03-19T05:37:40.268Z,5.43
2019-03-19T05:40:14.256Z,5.77
2019-03-19T05:42:43.511Z,4.50
2019-03-19T05:45:15.907Z,4.90
2019-03-19T05:47:44.513Z,4.40
2019-03-19T05:50:14.902Z,5.80
2019-03-19T05:52:43.328Z,4.20
2019-03-19T05:55:11.912Z,5.03
2019-03-19T05:57:48.969Z,5.10
2019-03-19T06:00:13.537Z,5.00
2019-03-19T06:02:42.002Z,5.00
2019-03-19T06:05:12.266Z,4.70
2019-03-19T06:07:40.708Z,4.40
2019-03-19T06:10:11.397Z,4.60
2019-03-19T06:12:39.852Z,5.13
2019-03-19T06:15:10.695Z,5.43
2019-03-19T06:17:39.272Z,4.93
2019-03-19T06:20:15.999Z,7.13
2019-03-19T06:22:45.510Z,6.03
2019-03-19T06:25:14.463Z,5.97
2019-03-19T06:27:43.133Z,6.93
2019-03-19T06:30:16.627Z,6.60
2019-03-19T06:32:45.050Z,6.33
2019-03-19T06:35:15.112Z,6.47
2019-03-19T06:37:46.812Z,6.37
2019-03-19T06:40:17.485Z,7.07
2019-03-19T06:42:47.281Z,6.53
2019-03-19T06:45:21.763Z,6.40
2019-03-19T06:47:50.249Z,6.97
2019-03-19T06:50:20.242Z,6.77
2019-03-19T06:52:48.743Z,6.93
2019-03-19T06:55:18.489Z,6.43
2019-03-19T06:57:46.941Z,5.87
2019-03-19T07:00:24.476Z,6.43
2019-03-19T07:02:52.908Z,6.30
2019-03-19T07:05:22.203Z,6.07
2019-03-19T07:07:50.672Z,6.10
2019-03-19T07:10:20.463Z,6.33
2019-03-19T07:12:49.042Z,6.80
2019-03-19T07:15:19.077Z,6.97
2019-03-19T07:17:47.930Z,5.93
2019-03-19T07:20:21.347Z,5.13
2019-03-19T07:22:49.932Z,5.53
2019-03-19T07:25:18.449Z,5.00
2019-03-19T07:27:46.967Z,6.23
2019-03-19T07:30:18.398Z,4.83
2019-03-19T07:32:47.211Z,5.97
2019-03-19T07:35:15.807Z,6.17
2019-03-19T07:37:44.343Z,4.97
2019-03-19T07:40:14.975Z,6.43
2019-03-19T07:42:43.592Z,5.80
2019-03-19T07:45:20.876Z,6.07
2019-03-19T07:47:49.328Z,5.07
2019-03-19T07:50:19.989Z,4.53
2019-03-19T07:52:48.525Z,5.10
2019-03-19T07:55:16.951Z,4.67
2019-03-19T07:57:45.557Z,5.30
2019-03-19T08:00:21.758Z,4.50
2019-03-19T08:02:51.095Z,3.80
2019-03-19T08:05:19.602Z,5.60
2019-03-19T08:07:48.398Z,5.10
2019-03-19T08:10:19.051Z,4.87
2019-03-19T08:12:47.558Z,3.70
2019-03-19T08:15:20.723Z,6.30
2019-03-19T08:17:49.889Z,4.83
2019-03-19T08:20:18.901Z,4.10
2019-03-19T08:22:47.518Z,4.43
2019-03-19T08:25:17.589Z,5.23
2019-03-19T08:27:49.218Z,5.40
2019-03-19T08:30:24.271Z,5.50
2019-03-19T08:32:53.273Z,4.30
2019-03-19T08:35:21.751Z,5.63
2019-03-19T08:37:50.185Z,4.47
2019-03-19T08:40:21.889Z,5.33
2019-03-19T08:42:51.525Z,4.20
2019-03-19T08:45:26.996Z,5.20
2019-03-19T08:47:55.551Z,4.13
2019-03-19T08:50:24.653Z,4.30
2019-03-19T08:52:55.210Z,4.20
2019-03-19T08:55:23.323Z,4.27
2019-03-19T08:57:52.394Z,5.20
2019-03-19T09:00:26.099Z,4.27
2019-03-19T09:02:56.227Z,6.10
2019-03-19T09:05:24.792Z,4.37
2019-03-19T09:07:53.528Z,4.10
2019-03-19T09:10:22.221Z,4.70
2019-03-19T09:12:50.703Z,4.13
2019-03-19T09:15:25.114Z,3.73
2019-03-19T09:17:54.007Z,4.13
2019-03-19T09:20:22.466Z,3.80
2019-03-19T09:22:52.775Z,4.00
2019-03-19T09:25:21.207Z,4.30
2019-03-19T09:27:49.672Z,4.97
2019-03-19T09:30:19.185Z,4.03
2019-03-19T09:32:47.573Z,3.20
2019-03-19T09:35:34.764Z,3.90
2019-03-19T09:38:01.817Z,4.30
2019-03-19T09:40:30.493Z,3.37
2019-03-19T09:42:58.922Z,3.73
2019-03-19T09:45:27.365Z,3.60
2019-03-19T09:47:55.813Z,3.30
2019-03-19T09:50:26.408Z,3.50
2019-03-19T09:52:55.004Z,3.53
2019-03-19T09:55:23.614Z,3.17
2019-03-19T09:57:52.121Z,2.80
2019-03-19T10:00:24.003Z,3.23
2019-03-19T10:02:52.499Z,2.60
2019-03-19T10:05:21.002Z,3.40
2019-03-19T10:07:49.440Z,2.47
2019-03-19T10:10:20.224Z,2.90
2019-03-19T10:12:48.781Z,3.13
2019-03-19T10:15:17.963Z,2.83
2019-03-19T10:17:46.482Z,2.93
2019-03-19T10:20:20.783Z,3.03
2019-03-19T10:22:49.279Z,2.57
2019-03-19T10:25:17.720Z,3.83
2019-03-19T10:27:46.272Z,3.47
2019-03-19T10:30:22.301Z,2.73
2019-03-19T10:32:50.911Z,2.73
2019-03-19T10:35:19.438Z,2.73
2019-03-19T10:37:47.942Z,2.90
2019-03-19T10:40:21.079Z,2.80
2019-03-19T10:42:49.663Z,2.47
2019-03-19T10:45:20.405Z,2.13
2019-03-19T10:47:48.854Z,3.23
2019-03-19T10:50:21.643Z,3.30
2019-03-19T10:52:50.309Z,3.00
2019-03-19T10:55:18.957Z,2.13
2019-03-19T10:57:47.471Z,3.00
2019-03-19T11:00:26.193Z,2.30
2019-03-19T11:02:54.866Z,2.43
2019-03-19T11:05:26.862Z,2.40
2019-03-19T11:07:55.487Z,2.83
2019-03-19T11:10:25.010Z,2.70
2019-03-19T11:12:53.476Z,2.50
2019-03-19T11:15:23.567Z,2.30
2019-03-19T11:17:52.081Z,2.53
2019-03-19T11:20:21.211Z,2.90
2019-03-19T11:22:49.782Z,1.97
2019-03-19T11:25:30.803Z,2.10
2019-03-19T11:27:59.251Z,2.67
2019-03-19T11:30:31.327Z,2.70
2019-03-19T11:32:59.935Z,2.70
2019-03-19T11:35:28.574Z,2.63
2019-03-19T11:37:56.998Z,2.47
2019-03-19T11:40:26.276Z,1.90
2019-03-19T11:42:54.910Z,2.20
2019-03-19T11:45:24.698Z,2.30
2019-03-19T11:47:53.149Z,2.37
2019-03-19T11:50:26.001Z,2.77
2019-03-19T11:52:54.520Z,2.37
2019-03-19T11:55:23.064Z,2.07
2019-03-19T11:57:52.015Z,2.70
2019-03-19T12:00:33.077Z,2.53
2019-03-19T12:03:12.182Z,2.97
2019-03-19T12:05:31.807Z,2.30
2019-03-19T12:08:01.030Z,2.63
2019-03-19T12:10:29.467Z,2.70
2019-03-19T12:12:57.903Z,2.60
2019-03-19T12:15:26.340Z,2.80
2019-03-19T12:17:54.797Z,2.97
2019-03-19T12:20:23.279Z,3.70
2019-03-19T12:22:51.739Z,2.90
2019-03-19T12:25:20.147Z,2.73
2019-03-19T12:27:48.596Z,3.27
2019-03-19T12:30:24.765Z,2.20
2019-03-19T12:32:52.217Z,2.30
2019-03-19T12:35:21.802Z,2.90
2019-03-19T12:37:50.234Z,2.40
2019-03-19T12:40:36.214Z,3.43
2019-03-19T12:42:55.865Z,2.43
2019-03-19T12:45:24.998Z,2.67
2019-03-19T12:47:53.432Z,2.77
2019-03-19T12:50:24.110Z,2.67
2019-03-19T12:52:52.602Z,3.30
2019-03-19T12:55:21.126Z,2.27
2019-03-19T12:57:49.832Z,2.47
2019-03-19T13:00:33.979Z,2.23
2019-03-19T13:02:56.102Z,2.37
2019-03-19T13:05:24.600Z,2.30
2019-03-19T13:07:53.041Z,2.97
2019-03-19T13:10:25.246Z,2.80
2019-03-19T13:12:53.815Z,2.43
2019-03-19T13:15:22.480Z,2.57
2019-03-19T13:17:50.966Z,2.50
2019-03-19T13:20:23.314Z,2.07
2019-03-19T13:22:51.815Z,2.30
2019-03-19T13:25:24.057Z,2.63
2019-03-19T13:27:52.598Z,2.83
2019-03-19T13:30:22.736Z,2.13
2019-03-19T13:32:51.189Z,2.87
2019-03-19T13:35:19.640Z,2.83
2019-03-19T13:37:48.061Z,3.07
2019-03-19T13:40:20.406Z,2.57
2019-03-19T13:42:49.007Z,2.20
2019-03-19T13:45:20.490Z,2.17
2019-03-19T13:47:48.954Z,2.50
2019-03-19T13:50:21.517Z,2.20
2019-03-19T13:52:50.074Z,2.30
2019-03-19T13:55:20.058Z,2.67
2019-03-19T13:57:48.499Z,2.43
2019-03-19T14:00:19.700Z,2.47
2019-03-19T14:02:48.125Z,2.30
2019-03-19T14:05:17.542Z,2.43
2019-03-19T14:07:46.106Z,2.70
2019-03-19T14:10:19.969Z,2.83
2019-03-19T14:12:48.777Z,2.67
2019-03-19T14:15:22.123Z,2.83
2019-03-19T14:17:50.721Z,2.83
2019-03-19T14:20:19.147Z,2.60
2019-03-19T14:22:47.670Z,2.87
2019-03-19T14:25:16.855Z,3.33
2019-03-19T14:27:45.458Z,3.03
2019-03-19T14:30:22.198Z,2.17
2019-03-19T14:32:50.699Z,2.00
2019-03-19T14:35:19.207Z,2.23
2019-03-19T14:37:48.340Z,3.13
2019-03-19T14:40:22.485Z,2.47
2019-03-19T14:42:50.999Z,3.17
2019-03-19T14:45:21.648Z,2.63
2019-03-19T14:47:50.209Z,2.23
2019-03-19T14:50:24.315Z,2.57
2019-03-19T14:52:52.844Z,2.43
2019-03-19T14:55:21.378Z,2.47
2019-03-19T14:57:51.105Z,2.30
2019-03-19T15:00:25.740Z,2.50
2019-03-19T15:02:54.374Z,1.90
2019-03-19T15:05:22.905Z,2.40
2019-03-19T15:07:51.418Z,2.57
2019-03-19T15:10:21.223Z,2.40
2019-03-19T15:12:49.815Z,2.33
2019-03-19T15:15:19.490Z,2.60
2019-03-19T15:17:47.994Z,1.80
2019-03-19T15:20:27.254Z,2.23
2019-03-19T15:22:55.749Z,2.67
2019-03-19T15:25:24.384Z,2.43
2019-03-19T15:27:53.395Z,2.30
2019-03-19T15:30:21.893Z,2.47
2019-03-19T15:32:50.370Z,2.20
2019-03-19T15:35:22.440Z,2.20
2019-03-19T15:37:50.889Z,2.40
2019-03-19T15:40:22.961Z,2.20
2019-03-19T15:42:51.379Z,2.50
2019-03-19T15:45:21.168Z,1.90
2019-03-19T15:47:49.702Z,2.10
2019-03-19T15:50:18.399Z,2.00
2019-03-19T15:52:47.052Z,2.30
2019-03-19T15:55:15.958Z,2.60
2019-03-19T15:57:44.408Z,1.93
2019-03-19T16:00:18.763Z,2.13
2019-03-19T16:02:47.528Z,2.30
2019-03-19T16:05:16.534Z,2.13
2019-03-19T16:07:45.064Z,1.93
2019-03-19T16:10:15.316Z,1.90
2019-03-19T16:12:44.332Z,2.53
2019-03-19T16:15:23.790Z,2.10
2019-03-19T16:17:52.321Z,2.30
2019-03-19T16:20:22.230Z,2.23
2019-03-19T16:22:50.711Z,2.13
2019-03-19T16:25:19.227Z,2.23
2019-03-19T16:27:47.677Z,1.90
2019-03-19T16:30:17.323Z,2.50
2019-03-19T16:32:45.818Z,2.60
2019-03-19T16:35:14.589Z,3.27
2019-03-19T16:37:43.033Z,2.20
2019-03-19T16:40:23.032Z,2.40
2019-03-19T16:42:51.543Z,2.20
2019-03-19T16:45:20.073Z,2.37
2019-03-19T16:47:48.671Z,2.27
2019-03-19T16:50:21.209Z,2.20
2019-03-19T16:52:49.707Z,2.03
2019-03-19T16:55:19.831Z,2.03
2019-03-19T16:57:48.276Z,2.20
2019-03-19T17:00:21.933Z,1.80
2019-03-19T17:02:50.439Z,2.37
2019-03-19T17:05:19.162Z,2.23
2019-03-19T17:07:47.527Z,2.23
2019-03-19T17:10:21.202Z,2.43
2019-03-19T17:12:49.790Z,2.20
2019-03-19T17:15:18.330Z,2.30
2019-03-19T17:17:47.692Z,2.30
2019-03-19T17:20:17.714Z,2.53
2019-03-19T17:22:46.231Z,2.43
2019-03-19T17:25:27.983Z,2.57
2019-03-19T17:27:56.427Z,2.30
2019-03-19T17:30:33.250Z,2.37
2019-03-19T17:33:01.663Z,2.70
2019-03-19T17:35:30.113Z,2.53
2019-03-19T17:37:58.559Z,2.53
2019-03-19T17:40:27.002Z,2.80
2019-03-19T17:42:55.432Z,2.37
2019-03-19T17:45:24.034Z,2.40
2019-03-19T17:47:52.549Z,2.27
2019-03-19T17:50:32.360Z,3.63
2019-03-19T17:53:00.777Z,3.17
2019-03-19T17:55:29.228Z,3.40
2019-03-19T17:57:57.681Z,2.73
2019-03-19T18:00:39.972Z,3.43
2019-03-19T18:03:08.515Z,2.50
2019-03-19T18:05:37.122Z,2.33
2019-03-19T18:08:06.328Z,2.33
2019-03-19T18:10:34.803Z,2.40
2019-03-19T18:13:03.291Z,2.67
2019-03-19T18:15:31.773Z,2.47
2019-03-19T18:18:00.222Z,3.30
2019-03-19T18:20:28.837Z,2.60
2019-03-19T18:22:57.311Z,2.40
2019-03-19T18:25:25.823Z,3.07
2019-03-19T18:27:54.288Z,2.90
2019-03-19T18:30:23.954Z,2.70
2019-03-19T18:32:52.498Z,3.30
2019-03-19T18:35:20.915Z,2.73
2019-03-19T18:37:49.461Z,2.93
2019-03-19T18:40:19.957Z,3.03
2019-03-19T18:42:48.419Z,2.93
2019-03-19T18:45:18.730Z,2.63
2019-03-19T18:47:47.217Z,3.17
2019-03-19T18:50:18.679Z,2.73
2019-03-19T18:52:47.790Z,2.67
2019-03-19T18:55:16.225Z,2.97
2019-03-19T18:57:44.674Z,3.13
2019-03-19T19:00:16.010Z,2.80
2019-03-19T19:02:49.525Z,3.17
2019-03-19T19:05:18.058Z,3.53
2019-03-19T19:07:46.514Z,3.17
2019-03-19T19:10:20.880Z,3.40
2019-03-19T19:12:48.897Z,3.33
2019-03-19T19:15:24.427Z,3.13
2019-03-19T19:17:52.907Z,3.20
2019-03-19T19:20:21.428Z,3.97
2019-03-19T19:22:50.016Z,4.07
2019-03-19T19:25:23.607Z,3.33
2019-03-19T19:27:52.140Z,4.27
2019-03-19T19:30:28.410Z,4.67
2019-03-19T19:33:02.137Z,3.87
2019-03-19T19:35:27.000Z,4.10
2019-03-19T19:37:56.207Z,4.70
2019-03-19T19:40:26.226Z,4.37
2019-03-19T19:42:55.410Z,4.40
2019-03-19T19:45:24.051Z,4.17
2019-03-19T19:47:52.553Z,3.70
2019-03-19T19:50:22.136Z,3.23
2019-03-19T19:52:50.584Z,3.27
2019-03-19T19:55:19.065Z,4.40
2019-03-19T19:57:47.670Z,3.80
2019-03-19T20:00:18.533Z,3.13
2019-03-19T20:02:47.255Z,3.50
2019-03-19T20:05:16.404Z,3.40
2019-03-19T20:07:44.851Z,3.37
2019-03-19T20:10:24.266Z,3.53
2019-03-19T20:12:52.883Z,3.77
2019-03-19T20:15:21.365Z,3.20
2019-03-19T20:17:49.788Z,3.87
2019-03-19T20:20:20.286Z,3.23
2019-03-19T20:22:49.256Z,3.33
2019-03-19T20:25:18.174Z,3.53
2019-03-19T20:27:47.489Z,3.57
2019-03-19T20:30:20.211Z,3.30
2019-03-19T20:32:52.798Z,3.30
2019-03-19T20:35:21.325Z,3.60
2019-03-19T20:37:49.859Z,3.30
2019-03-19T20:40:18.428Z,3.73
2019-03-19T20:42:46.934Z,3.10
2019-03-19T20:45:20.074Z,3.20
2019-03-19T20:47:48.543Z,3.80
2019-03-19T20:53:16.673Z,3.70
2019-03-19T20:55:45.113Z,3.70
2019-03-19T20:58:13.664Z,3.93
2019-03-19T21:00:42.082Z,4.20
2019-03-19T21:03:10.551Z,4.23
2019-03-19T21:05:39.097Z,4.10
2019-03-19T21:08:07.735Z,4.70
2019-03-19T21:10:37.350Z,4.37
2019-03-19T21:13:05.842Z,4.10
2019-03-19T21:15:34.304Z,4.53
2019-03-19T21:18:02.946Z,4.30
2019-03-19T21:20:31.676Z,5.17
2019-03-19T21:23:00.346Z,4.27
2019-03-19T21:25:28.885Z,4.20
2019-03-19T21:27:57.389Z,4.73
2019-03-19T21:30:25.894Z,4.87
2019-03-19T21:32:54.352Z,3.90
2019-03-19T21:35:23.835Z,4.57
2019-03-19T21:37:52.448Z,4.80
2019-03-19T21:40:21.438Z,5.57
2019-03-19T21:42:50.385Z,4.97
2019-03-19T21:45:20.913Z,4.23
2019-03-19T21:47:49.431Z,4.70
2019-03-19T21:50:23.027Z,4.63
2019-03-19T21:52:51.795Z,4.50
2019-03-19T21:55:20.293Z,4.60
2019-03-19T21:57:51.584Z,4.70
2019-03-19T22:00:24.542Z,4.80
2019-03-19T22:02:53.080Z,6.13
2019-03-19T22:05:21.726Z,4.77
2019-03-19T22:07:50.163Z,4.87
2019-03-19T22:10:20.263Z,4.90
2019-03-19T22:12:49.801Z,4.80
2019-03-19T22:15:24.672Z,4.47
2019-03-19T22:17:53.365Z,5.07
2019-03-19T22:20:22.150Z,5.37
2019-03-19T22:22:50.618Z,5.23
2019-03-19T22:25:19.461Z,4.60
2019-03-19T22:27:49.736Z,4.77
2019-03-19T22:30:20.217Z,5.20
2019-03-19T22:32:48.693Z,4.70
2019-03-19T22:35:21.333Z,4.77
2019-03-19T22:37:49.798Z,4.37
2019-03-19T22:40:18.937Z,5.33
2019-03-19T22:42:47.563Z,5.00
2019-03-19T22:45:16.873Z,4.87
2019-03-19T22:47:45.351Z,5.00
2019-03-19T22:50:15.131Z,5.37
2019-03-19T22:52:43.738Z,5.50
2019-03-19T22:55:13.478Z,6.07
2019-03-19T22:57:42.098Z,5.70
2019-03-19T23:00:37.170Z,5.77
2019-03-19T23:03:07.133Z,4.90
2019-03-19T23:05:36.531Z,5.23
2019-03-19T23:08:05.339Z,5.43
2019-03-19T23:10:34.473Z,4.83
2019-03-19T23:13:03.004Z,5.30
2019-03-19T23:15:31.420Z,4.93
2019-03-19T23:18:00.211Z,5.27
2019-03-19T23:20:29.507Z,4.83
2019-03-19T23:22:58.007Z,4.83
2019-03-19T23:25:26.450Z,6.60
2019-03-19T23:27:54.871Z,4.47
2019-03-19T23:30:24.845Z,4.57
2019-03-19T23:32:53.792Z,4.77
2019-03-19T23:35:22.326Z,5.60
2019-03-19T23:37:50.799Z,5.40
2019-03-19T23:40:20.854Z,5.03
2019-03-19T23:42:49.422Z,5.63
2019-03-19T23:45:17.964Z,5.67
2019-03-19T23:47:46.386Z,5.40
2019-03-19T23:50:19.894Z,5.50
2019-03-19T23:52:49.114Z,4.87
2019-03-19T23:55:17.625Z,4.70
2019-03-19T23:57:46.078Z,5.10
